createdAt,value
2023-04-15T00:01:38.218Z,1.17
2023-04-15T00:04:05.654Z,0.90
2023-04-15T00:06:33.061Z,1.10
2023-04-15T00:09:01.142Z,1.40
2023-04-15T00:11:29.080Z,1.15
2023-04-15T00:13:56.358Z,1.20
2023-04-15T00:16:23.621Z,1.02
2023-04-15T00:18:50.917Z,1.15
2023-04-15T00:21:18.198Z,1.38
2023-04-15T00:23:45.499Z,1.00
2023-04-15T00:26:12.913Z,1.15
2023-04-15T00:28:42.745Z,1.10
2023-04-15T00:31:10.050Z,1.40
2023-04-15T00:33:37.633Z,1.45
2023-04-15T00:36:07.599Z,1.15
2023-04-15T00:38:34.846Z,1.10
2023-04-15T00:41:04.086Z,0.98
2023-04-15T00:43:31.383Z,1.38
2023-04-15T00:45:59.783Z,1.30
2023-04-15T00:48:28.510Z,1.00
2023-04-15T00:53:23.352Z,1.10
2023-04-15T00:55:51.519Z,1.10
2023-04-15T00:58:19.555Z,1.00
2023-04-15T01:00:47.095Z,1.15
2023-04-15T01:03:15.709Z,1.10
2023-04-15T01:05:43.044Z,1.33
2023-04-15T01:08:10.818Z,1.10
2023-04-15T01:10:38.324Z,1.20
2023-04-15T01:13:05.712Z,1.23
2023-04-15T01:15:35.590Z,1.00
2023-04-15T01:18:03.403Z,1.20
2023-04-15T01:20:30.740Z,0.93
2023-04-15T01:22:57.999Z,1.10
2023-04-15T01:25:33.628Z,1.08
2023-04-15T01:28:01.490Z,1.08
2023-04-15T01:30:28.909Z,1.02
2023-04-15T01:32:56.395Z,1.10
2023-04-15T01:35:44.431Z,1.23
2023-04-15T01:38:12.657Z,1.20
2023-04-15T01:40:41.054Z,1.17
2023-04-15T01:43:09.591Z,1.13
2023-04-15T01:45:38.039Z,1.40
2023-04-15T01:50:39.620Z,1.10
2023-04-15T01:53:08.796Z,1.30
2023-04-15T01:55:37.778Z,2.17
2023-04-15T01:58:06.267Z,0.93
2023-04-15T02:00:34.982Z,1.30
2023-04-15T02:03:03.617Z,1.25
2023-04-15T02:05:32.171Z,1.15
2023-04-15T02:08:00.636Z,1.35
2023-04-15T02:10:29.102Z,1.20
2023-04-15T02:12:57.759Z,1.00
2023-04-15T02:15:29.723Z,1.23
2023-04-15T02:17:59.452Z,1.50
2023-04-15T02:20:27.951Z,1.50
2023-04-15T02:22:59.782Z,1.10
2023-04-15T02:25:28.333Z,1.05
2023-04-15T02:27:58.447Z,1.20
2023-04-15T02:30:27.378Z,1.00
2023-04-15T02:32:56.319Z,1.10
2023-04-15T02:35:27.193Z,0.98
2023-04-15T02:37:56.725Z,1.10
2023-04-15T02:40:25.476Z,1.17
2023-04-15T02:42:53.965Z,1.60
2023-04-15T02:45:24.383Z,1.52
2023-04-15T02:47:53.288Z,1.38
2023-04-15T02:50:23.782Z,1.20
2023-04-15T02:52:52.534Z,1.52
2023-04-15T02:55:21.170Z,1.42
2023-04-15T02:57:50.037Z,1.60
2023-04-15T03:00:18.658Z,1.92
2023-04-15T03:02:52.561Z,1.60
2023-04-15T03:05:21.295Z,1.80
2023-04-15T03:07:52.692Z,1.58
2023-04-15T03:10:22.550Z,1.65
2023-04-15T03:12:51.195Z,1.80
2023-04-15T03:15:22.670Z,2.00
2023-04-15T03:17:53.931Z,1.92
2023-04-15T03:20:22.483Z,1.70
2023-04-15T03:22:51.132Z,2.17
2023-04-15T03:25:21.826Z,1.88
2023-04-15T03:27:50.300Z,1.75
2023-04-15T03:30:19.455Z,1.63
2023-04-15T03:32:48.133Z,1.73
2023-04-15T03:35:17.360Z,1.88
2023-04-15T03:37:45.850Z,1.90
2023-04-15T03:40:14.355Z,1.55
2023-04-15T03:42:42.797Z,1.83
2023-04-15T03:45:11.923Z,1.73
2023-04-15T03:47:40.412Z,1.50
2023-04-15T03:50:09.347Z,1.40
2023-04-15T03:52:37.904Z,1.50
2023-04-15T03:55:06.844Z,1.45
2023-04-15T03:57:38.305Z,1.58
2023-04-15T04:00:12.373Z,1.33
2023-04-15T04:02:41.258Z,1.50
2023-04-15T04:05:10.184Z,1.80
2023-04-15T04:07:38.733Z,1.85
2023-04-15T04:10:08.092Z,1.50
2023-04-15T04:12:36.601Z,1.42
2023-04-15T04:15:06.036Z,1.48
2023-04-15T04:17:34.724Z,1.50
2023-04-15T04:20:03.407Z,1.55
2023-04-15T04:22:32.081Z,1.40
2023-04-15T04:25:02.920Z,1.60
2023-04-15T04:27:31.486Z,1.30
2023-04-15T04:29:59.965Z,1.70
2023-04-15T04:32:28.716Z,1.30
2023-04-15T04:34:57.130Z,1.40
2023-04-15T04:39:54.327Z,1.27
2023-04-15T04:42:23.095Z,1.20
2023-04-15T04:44:51.763Z,1.08
2023-04-15T04:47:20.266Z,1.10
2023-04-15T04:49:48.752Z,1.30
2023-04-15T04:52:17.393Z,1.08
2023-04-15T04:54:46.181Z,1.38
2023-04-15T04:57:14.718Z,1.27
2023-04-15T04:59:43.247Z,1.60
2023-04-15T05:02:12.114Z,1.10
2023-04-15T05:04:41.942Z,1.65
2023-04-15T05:07:11.014Z,1.10
2023-04-15T05:09:39.447Z,1.13
2023-04-15T05:17:06.058Z,1.10
2023-04-15T05:19:34.639Z,1.40
2023-04-15T05:22:03.448Z,1.15
2023-04-15T05:24:32.123Z,1.27
2023-04-15T05:27:02.082Z,1.20
2023-04-15T05:29:30.894Z,1.20
2023-04-15T05:31:59.331Z,1.20
2023-04-15T05:36:55.987Z,1.17
2023-04-15T05:39:24.426Z,1.10
2023-04-15T05:44:21.410Z,1.30
2023-04-15T05:46:49.872Z,1.00
2023-04-15T05:49:18.345Z,1.00
2023-04-15T05:51:48.462Z,1.15
2023-04-15T05:54:19.281Z,1.25
2023-04-15T05:56:48.527Z,1.25
2023-04-15T05:59:17.152Z,1.20
2023-04-15T06:01:45.793Z,1.00
2023-04-15T06:04:14.411Z,1.23
2023-04-15T06:06:42.967Z,1.20
2023-04-15T06:09:11.521Z,1.23
2023-04-15T06:11:41.512Z,1.20
2023-04-15T06:14:10.020Z,1.35
2023-04-15T06:16:38.925Z,1.25
2023-04-15T06:19:07.593Z,1.10
2023-04-15T06:24:04.697Z,1.50
2023-04-15T06:26:33.158Z,1.25
2023-04-15T06:29:01.816Z,1.95
2023-04-15T06:31:30.889Z,1.55
2023-04-15T06:33:59.287Z,1.15
2023-04-15T06:38:57.249Z,1.20
2023-04-15T06:41:25.822Z,1.60
2023-04-15T06:43:54.434Z,1.40
2023-04-15T06:46:23.360Z,1.20
2023-04-15T06:48:52.727Z,1.20
2023-04-15T06:51:21.385Z,1.52
2023-04-15T06:53:49.925Z,1.50
2023-04-15T06:56:18.446Z,1.40
2023-04-15T06:58:47.407Z,1.45
2023-04-15T07:01:15.971Z,1.63
2023-04-15T07:03:44.689Z,1.58
2023-04-15T07:06:13.484Z,1.50
2023-04-15T07:08:42.099Z,1.17
2023-04-15T07:11:10.627Z,1.45
2023-04-15T07:13:39.115Z,1.13
2023-04-15T07:16:07.750Z,1.10
2023-04-15T07:18:36.319Z,1.48
2023-04-15T07:21:05.342Z,1.13
2023-04-15T07:23:33.873Z,1.42
2023-04-15T07:26:02.945Z,1.30
2023-04-15T07:28:31.932Z,1.50
2023-04-15T07:31:01.010Z,1.50
2023-04-15T07:33:29.571Z,1.60
2023-04-15T07:35:58.341Z,1.55
2023-04-15T07:38:26.899Z,1.30
2023-04-15T07:40:55.576Z,1.50
2023-04-15T07:43:23.985Z,1.40
2023-04-15T07:48:20.815Z,0.93
2023-04-15T07:50:49.336Z,1.60
2023-04-15T07:53:17.706Z,2.20
2023-04-15T07:58:14.587Z,1.50
2023-04-15T08:00:43.077Z,1.90
2023-04-15T08:03:12.013Z,1.70
2023-04-15T08:05:40.593Z,1.58
2023-04-15T08:08:09.254Z,1.23
2023-04-15T08:10:38.109Z,1.70
2023-04-15T08:13:06.849Z,1.60
2023-04-15T08:15:35.316Z,1.70
2023-04-15T08:18:04.107Z,1.40
2023-04-15T08:20:32.763Z,1.70
2023-04-15T08:23:01.295Z,2.00
2023-04-15T08:25:29.742Z,1.70
2023-04-15T08:30:26.740Z,1.80
2023-04-15T08:32:55.208Z,1.88
2023-04-15T08:35:23.749Z,1.40
2023-04-15T08:37:52.425Z,1.67
2023-04-15T08:40:23.179Z,1.90
2023-04-15T08:42:54.914Z,1.70
2023-04-15T08:45:23.957Z,1.85
2023-04-15T08:47:59.669Z,2.00
2023-04-15T08:50:31.831Z,3.22
2023-04-15T08:53:00.665Z,2.20
2023-04-15T08:55:35.933Z,1.95
2023-04-15T08:58:06.068Z,2.38
2023-04-15T09:00:34.598Z,1.48
2023-04-15T09:03:04.510Z,2.00
2023-04-15T09:05:34.415Z,2.35
2023-04-15T09:08:04.338Z,1.95
2023-04-15T09:10:33.761Z,2.10
2023-04-15T09:13:03.052Z,1.88
2023-04-15T09:15:33.948Z,1.98
2023-04-15T09:18:02.619Z,2.30
2023-04-15T09:20:31.198Z,1.80
2023-04-15T09:22:59.665Z,1.60
2023-04-15T09:25:30.090Z,2.03
2023-04-15T09:28:02.425Z,1.80
2023-04-15T09:30:30.916Z,2.00
2023-04-15T09:33:08.550Z,1.90
2023-04-15T09:35:37.757Z,1.80
2023-04-15T09:38:10.123Z,1.55
2023-04-15T09:40:42.229Z,2.08
2023-04-15T09:43:13.224Z,2.20
2023-04-15T09:45:54.494Z,2.13
2023-04-15T09:48:31.342Z,1.83
2023-04-15T09:51:01.997Z,1.70
2023-04-15T09:53:33.148Z,1.88
2023-04-15T09:56:02.807Z,1.80
2023-04-15T09:58:35.322Z,2.00
2023-04-15T10:01:06.561Z,2.03
2023-04-15T10:03:38.867Z,1.50
2023-04-15T10:06:08.227Z,1.70
2023-04-15T10:08:36.697Z,1.60
2023-04-15T10:11:06.663Z,1.85
2023-04-15T10:13:37.585Z,2.13
2023-04-15T10:16:13.015Z,1.70
2023-04-15T10:18:46.377Z,1.67
2023-04-15T10:21:18.977Z,1.80
2023-04-15T10:23:47.936Z,1.42
2023-04-15T10:26:17.930Z,1.70
2023-04-15T10:28:50.233Z,1.80
2023-04-15T10:31:20.236Z,1.98
2023-04-15T10:33:49.838Z,1.70
2023-04-15T10:36:20.103Z,1.50
2023-04-15T10:38:48.605Z,1.73
2023-04-15T10:41:24.786Z,1.90
2023-04-15T10:43:57.050Z,1.65
2023-04-15T10:46:41.778Z,1.67
2023-04-15T10:49:24.433Z,1.27
2023-04-15T10:51:59.910Z,1.58
2023-04-15T10:54:28.686Z,1.52
2023-04-15T10:57:06.692Z,1.60
2023-04-15T10:59:59.023Z,1.60
2023-04-15T11:02:52.180Z,2.22
2023-04-15T11:05:23.415Z,2.05
2023-04-15T11:07:55.149Z,3.10
2023-04-15T11:10:26.704Z,1.60
2023-04-15T11:13:04.176Z,1.30
2023-04-15T11:15:41.271Z,1.50
2023-04-15T11:18:13.583Z,1.52
2023-04-15T11:20:47.621Z,1.80
2023-04-15T11:23:19.253Z,2.05
2023-04-15T11:25:48.950Z,2.03
2023-04-15T11:28:17.486Z,1.70
2023-04-15T11:30:45.947Z,1.80
2023-04-15T11:33:14.551Z,2.65
2023-04-15T11:35:43.220Z,2.03
2023-04-15T11:38:18.506Z,2.28
2023-04-15T11:40:47.321Z,1.42
2023-04-15T11:43:22.273Z,2.35
2023-04-15T11:46:02.698Z,1.83
2023-04-15T11:48:37.033Z,1.60
2023-04-15T11:51:08.144Z,1.80
2023-04-15T11:53:50.077Z,2.00
2023-04-15T11:56:27.493Z,2.00
2023-04-15T11:58:59.786Z,2.35
2023-04-15T12:01:44.084Z,2.30
2023-04-15T12:04:25.238Z,1.48
2023-04-15T12:06:53.375Z,2.10
2023-04-15T12:09:21.884Z,1.75
2023-04-15T12:11:57.570Z,1.45
2023-04-15T12:14:29.481Z,4.80
2023-04-15T12:17:05.669Z,11.75
2023-04-15T12:19:42.784Z,7.30
2023-04-15T12:22:13.019Z,6.50
2023-04-15T12:24:44.120Z,6.20
2023-04-15T12:27:13.041Z,4.82
2023-04-15T12:29:43.295Z,3.75
2023-04-15T12:32:12.004Z,2.72
2023-04-15T12:34:43.309Z,4.68
2023-04-15T12:37:14.505Z,4.00
2023-04-15T12:39:46.097Z,4.00
2023-04-15T12:42:13.424Z,4.53
2023-04-15T12:44:41.155Z,2.23
2023-04-15T12:47:09.849Z,2.13
2023-04-15T12:49:37.873Z,1.95
2023-04-15T12:52:05.784Z,4.47
2023-04-15T12:54:33.499Z,2.20
2023-04-15T12:57:01.232Z,3.38
2023-04-15T12:59:29.216Z,1.92
2023-04-15T13:01:56.679Z,7.28
2023-04-15T13:04:24.220Z,2.50
2023-04-15T13:06:51.660Z,5.80
2023-04-15T13:09:18.944Z,4.45
2023-04-15T13:11:46.530Z,20.53
2023-04-15T13:14:13.851Z,8.40
2023-04-15T13:16:41.818Z,4.85
2023-04-15T13:19:09.197Z,3.22
2023-04-15T13:21:36.908Z,3.13
2023-04-15T13:24:07.399Z,3.13
2023-04-15T13:26:34.938Z,4.50
2023-04-15T13:29:02.230Z,3.75
2023-04-15T13:31:29.552Z,2.10
2023-04-15T13:33:57.943Z,4.10
2023-04-15T13:36:25.257Z,5.57
2023-04-15T13:38:52.657Z,12.75
2023-04-15T13:41:21.406Z,3.47
2023-04-15T13:43:48.864Z,4.85
2023-04-15T13:46:16.388Z,4.80
2023-04-15T13:48:43.791Z,3.13
2023-04-15T13:51:11.187Z,2.30
2023-04-15T13:53:39.725Z,2.93
2023-04-15T13:56:11.158Z,2.03
2023-04-15T13:58:38.713Z,1.70
2023-04-15T14:01:07.427Z,1.90
2023-04-15T14:03:36.790Z,2.13
2023-04-15T14:06:05.929Z,2.40
2023-04-15T14:08:33.727Z,1.80
2023-04-15T14:11:01.588Z,3.95
2023-04-15T14:13:29.183Z,1.90
2023-04-15T14:15:57.805Z,2.17
2023-04-15T14:18:25.449Z,2.90
2023-04-15T14:20:52.739Z,2.25
2023-04-15T14:23:20.392Z,2.20
2023-04-15T14:25:48.477Z,2.10
2023-04-15T14:30:43.756Z,1.90
2023-04-15T14:33:11.236Z,2.03
2023-04-15T14:35:39.290Z,2.10
2023-04-15T14:38:10.936Z,2.08
2023-04-15T14:40:38.923Z,1.80
2023-04-15T14:43:06.187Z,1.87
2023-04-15T14:45:33.851Z,1.80
2023-04-15T14:48:01.693Z,6.55
2023-04-15T14:50:29.230Z,4.65
2023-04-15T14:52:56.511Z,3.20
2023-04-15T14:55:23.809Z,5.10
2023-04-15T14:57:51.118Z,22.52
2023-04-15T15:00:18.400Z,7.82
2023-04-15T15:02:47.777Z,5.13
2023-04-15T15:05:16.384Z,2.50
2023-04-15T15:07:43.870Z,3.70
2023-04-15T15:10:11.356Z,4.13
2023-04-15T15:12:38.623Z,4.13
2023-04-15T15:15:15.531Z,3.40
2023-04-15T15:17:49.459Z,3.83
2023-04-15T15:20:19.516Z,3.13
2023-04-15T15:22:46.957Z,3.08
2023-04-15T15:25:16.990Z,3.45
2023-04-15T15:27:44.696Z,3.63
2023-04-15T15:30:12.966Z,4.10
2023-04-15T15:32:42.824Z,3.78
2023-04-15T15:35:11.305Z,4.80
2023-04-15T15:40:06.854Z,6.55
2023-04-15T15:42:35.169Z,6.13
2023-04-15T15:45:04.449Z,6.20
2023-04-15T15:47:33.803Z,6.10
2023-04-15T15:50:06.136Z,7.25
2023-04-15T15:52:33.710Z,7.40
2023-04-15T15:55:04.155Z,7.90
2023-04-15T15:57:31.676Z,7.90
2023-04-15T16:00:10.523Z,9.40
2023-04-15T16:05:11.713Z,9.10
2023-04-15T16:07:39.020Z,8.50
2023-04-15T16:10:07.324Z,10.30
2023-04-15T16:15:02.482Z,8.43
2023-04-15T16:17:32.488Z,9.90
2023-04-15T16:20:00.989Z,11.73
2023-04-15T16:22:29.752Z,10.95
2023-04-15T16:24:57.028Z,11.13
2023-04-15T16:27:24.227Z,12.85
2023-04-15T16:29:51.523Z,10.93
2023-04-15T16:32:18.981Z,11.82
2023-04-15T16:34:46.591Z,11.57
2023-04-15T16:37:13.868Z,11.33
2023-04-15T16:39:41.192Z,12.48
2023-04-15T16:42:09.233Z,13.50
2023-04-15T16:44:36.635Z,12.05
2023-04-15T16:47:06.512Z,11.20
2023-04-15T16:49:35.688Z,8.60
2023-04-15T16:52:03.171Z,8.85
2023-04-15T16:54:30.584Z,8.53
2023-04-15T16:56:58.776Z,7.43
2023-04-15T16:59:26.470Z,6.53
2023-04-15T17:01:55.195Z,6.32
2023-04-15T17:04:24.974Z,6.97
2023-04-15T17:06:52.266Z,6.90
2023-04-15T17:09:19.532Z,5.78
2023-04-15T17:11:46.853Z,5.00
2023-04-15T17:14:14.376Z,4.20
2023-04-15T17:16:43.655Z,3.97
2023-04-15T17:19:11.634Z,4.53
2023-04-15T17:22:00.002Z,3.28
2023-04-15T17:24:47.168Z,4.38
2023-04-15T17:27:34.364Z,31.23
2023-04-15T17:30:21.589Z,86.97
2023-04-15T17:33:56.156Z,58.53
2023-04-15T17:36:18.125Z,34.45
2023-04-15T17:39:05.483Z,24.10
2023-04-15T17:41:52.988Z,17.65
2023-04-15T17:44:21.202Z,12.93
2023-04-15T17:47:09.188Z,12.68
2023-04-15T17:49:56.557Z,14.40
2023-04-15T17:52:44.411Z,11.43
2023-04-15T17:55:33.159Z,39.17
2023-04-15T17:58:20.585Z,32.53
2023-04-15T18:01:07.862Z,19.92
2023-04-15T18:03:55.212Z,18.25
2023-04-15T18:06:42.632Z,12.75
2023-04-15T18:09:29.933Z,12.27
2023-04-15T18:12:17.170Z,13.73
2023-04-15T18:15:04.805Z,21.55
2023-04-15T18:17:52.404Z,22.35
2023-04-15T18:20:19.799Z,20.17
2023-04-15T18:22:48.505Z,17.40
2023-04-15T18:25:15.975Z,16.05
2023-04-15T18:27:43.539Z,13.93
2023-04-15T18:30:12.253Z,11.52
2023-04-15T18:32:43.262Z,11.68
2023-04-15T18:35:10.933Z,12.38
2023-04-15T18:37:38.486Z,11.25
2023-04-15T18:40:08.165Z,10.30
2023-04-15T18:42:35.686Z,10.07
2023-04-15T18:45:03.229Z,10.55
2023-04-15T18:47:32.015Z,10.60
2023-04-15T18:49:59.662Z,9.95
2023-04-15T18:52:27.010Z,9.18
2023-04-15T18:54:54.419Z,8.57
2023-04-15T18:57:32.622Z,9.13
2023-04-15T19:00:02.328Z,8.43
2023-04-15T19:02:34.002Z,8.55
2023-04-15T19:05:04.341Z,8.75
2023-04-15T19:07:32.987Z,7.63
2023-04-15T19:10:00.395Z,7.95
2023-04-15T19:12:27.780Z,7.30
2023-04-15T19:14:55.172Z,7.13
2023-04-15T19:17:22.539Z,6.78
2023-04-15T19:19:50.120Z,5.80
2023-04-15T19:22:17.583Z,5.77
2023-04-15T19:24:46.125Z,5.70
2023-04-15T19:27:13.490Z,4.70
2023-04-15T19:29:40.891Z,5.50
2023-04-15T19:32:08.611Z,5.23
2023-04-15T19:34:36.151Z,5.20
2023-04-15T19:37:03.422Z,5.27
2023-04-15T19:39:30.781Z,5.45
2023-04-15T19:41:59.108Z,4.90
2023-04-15T19:46:53.807Z,4.85
2023-04-15T19:49:21.368Z,4.30
2023-04-15T19:51:50.623Z,4.25
2023-04-15T19:54:18.096Z,4.20
2023-04-15T19:56:45.342Z,4.63
2023-04-15T19:59:13.026Z,4.95
2023-04-15T20:01:40.395Z,5.53
2023-04-15T20:04:07.874Z,4.77
2023-04-15T20:06:35.450Z,4.83
2023-04-15T20:09:03.029Z,5.07
2023-04-15T20:12:44.862Z,4.80
2023-04-15T20:14:18.081Z,4.82
2023-04-15T20:16:45.445Z,5.00
2023-04-15T20:19:13.430Z,4.65
2023-04-15T20:21:41.012Z,4.03
2023-04-15T20:24:08.373Z,4.85
2023-04-15T20:26:36.367Z,5.60
2023-04-15T20:29:03.948Z,5.13
2023-04-15T20:31:31.571Z,4.70
2023-04-15T20:33:58.870Z,5.18
2023-04-15T20:36:26.999Z,6.00
2023-04-15T20:38:54.268Z,5.57
2023-04-15T20:41:22.309Z,5.43
2023-04-15T20:43:49.699Z,6.18
2023-04-15T20:46:21.028Z,6.57
2023-04-15T20:48:49.163Z,6.57
2023-04-15T20:51:16.765Z,6.17
2023-04-15T20:53:44.035Z,6.13
2023-04-15T20:56:11.779Z,6.30
2023-04-15T20:58:39.506Z,6.32
2023-04-15T21:01:07.297Z,6.60
2023-04-15T21:03:34.999Z,6.28
2023-04-15T21:06:02.532Z,6.93
2023-04-15T21:08:30.567Z,6.30
2023-04-15T21:10:58.007Z,6.85
2023-04-15T21:13:25.449Z,6.23
2023-04-15T21:15:54.563Z,6.03
2023-04-15T21:18:22.414Z,6.22
2023-04-15T21:20:57.981Z,6.82
2023-04-15T21:23:26.400Z,6.05
2023-04-15T21:25:53.715Z,7.03
2023-04-15T21:28:21.178Z,7.88
2023-04-15T21:30:49.629Z,7.93
2023-04-15T21:33:17.960Z,7.75
2023-04-15T21:35:45.295Z,6.70
2023-04-15T21:38:12.664Z,7.27
2023-04-15T21:40:41.094Z,7.40
2023-04-15T21:43:08.839Z,7.32
2023-04-15T21:45:39.461Z,7.10
2023-04-15T21:48:08.250Z,7.63
2023-04-15T21:50:39.024Z,6.05
2023-04-15T21:53:09.180Z,7.00
2023-04-15T21:55:36.541Z,6.40
2023-04-15T21:58:03.957Z,5.80
2023-04-15T22:00:31.223Z,5.25
2023-04-15T22:02:58.763Z,5.70
2023-04-15T22:05:26.726Z,5.85
2023-04-15T22:07:54.063Z,6.20
2023-04-15T22:10:21.493Z,5.75
2023-04-15T22:12:48.852Z,5.83
2023-04-15T22:15:17.097Z,7.57
2023-04-15T22:17:44.460Z,6.85
2023-04-15T22:20:11.834Z,6.97
2023-04-15T22:22:43.933Z,6.43
2023-04-15T22:25:12.861Z,6.57
2023-04-15T22:27:40.435Z,6.82
2023-04-15T22:30:08.715Z,6.33
2023-04-15T22:35:03.657Z,6.45
2023-04-15T22:37:33.795Z,7.18
2023-04-15T22:40:02.188Z,7.05
2023-04-15T22:42:32.341Z,5.95
2023-04-15T22:44:59.651Z,6.18
2023-04-15T22:47:27.219Z,6.15
2023-04-15T22:49:54.512Z,6.30
2023-04-15T22:52:30.112Z,6.00
2023-04-15T22:54:58.966Z,6.30
2023-04-15T22:57:28.006Z,6.45
2023-04-15T22:59:55.500Z,6.60
2023-04-15T23:02:23.020Z,6.70
2023-04-15T23:04:50.612Z,6.30
2023-04-15T23:07:18.014Z,6.17
2023-04-15T23:09:45.502Z,5.80
2023-04-15T23:12:14.206Z,6.23
2023-04-15T23:14:41.537Z,6.30
2023-04-15T23:17:08.712Z,5.57
2023-04-15T23:19:36.090Z,6.93
2023-04-15T23:22:03.692Z,6.55
2023-04-15T23:24:31.014Z,6.82
2023-04-15T23:26:58.275Z,5.72
2023-04-15T23:29:25.586Z,5.53
2023-04-15T23:31:52.959Z,6.28
2023-04-15T23:34:20.295Z,6.43
2023-04-15T23:36:47.776Z,6.50
2023-04-15T23:39:15.020Z,5.68
2023-04-15T23:41:42.255Z,5.30
2023-04-15T23:44:10.039Z,5.55
2023-04-15T23:46:37.327Z,5.75
2023-04-15T23:49:04.620Z,5.70
2023-04-15T23:51:31.897Z,5.93
2023-04-15T23:53:59.207Z,5.65
2023-04-15T23:56:26.618Z,6.93
2023-04-15T23:58:53.888Z,6.03
